Time;durP1;ratioP1;P1;durP2;ratioP2;P2;SDS_P1;SDS_P2;PMS_P1;PMS_P2;Temp;Humidity;BMP_temperature;BMP_pressure;BME280_temperature;BME280_humidity;BME280_pressure;Samples;Min_cycle;Max_cycle;Signal;HPM_P1;HPM_P2
2022/09/05 00:02:33;;;;;;;8.25;6.20;;;;;;;16.28;100.00;100774.22;4990032;28;20250;-74
2022/09/05 00:05:12;;;;;;;6.32;5.72;;;;;;;16.31;100.00;100771.31;4995238;28;20599;-74
2022/09/05 00:07:46;;;;;;;7.60;6.82;;;;;;;16.25;100.00;100774.41;4990713;28;20218;-74
2022/09/05 00:10:25;;;;;;;12.07;10.40;;;;;;;16.25;100.00;100775.28;4999305;28;20209;-75
2022/09/05 00:12:56;;;;;;;7.00;6.30;;;;;;;16.32;100.00;100772.19;4988494;28;20217;-74
2022/09/05 00:15:29;;;;;;;9.95;7.25;;;;;;;16.22;100.00;100775.47;5002488;28;20210;-73
2022/09/05 00:18:24;;;;;;;7.97;6.53;;;;;;;16.14;100.00;100775.06;4996893;28;20771;-74
2022/09/05 00:20:59;;;;;;;8.05;6.95;;;;;;;16.29;100.00;100766.94;4992617;28;20296;-74
2022/09/05 00:23:37;;;;;;;8.50;6.63;;;;;;;16.26;100.00;100770.75;5052987;28;20200;-75
2022/09/05 00:26:17;;;;;;;7.88;6.75;;;;;;;16.31;100.00;100770.44;5060221;28;20685;-75
2022/09/05 00:28:53;;;;;;;8.13;7.30;;;;;;;16.35;100.00;100766.53;5053678;28;20227;-74
2022/09/05 00:31:39;;;;;;;9.73;7.90;;;;;;;16.33;100.00;100760.34;5058948;28;20198;-74
2022/09/05 00:34:18;;;;;;;10.15;7.93;;;;;;;16.31;100.00;100760.44;5063154;28;20786;-73
2022/09/05 00:36:47;;;;;;;9.25;7.80;;;;;;;16.34;100.00;100770.25;5062697;28;20208;-75
2022/09/05 00:39:19;;;;;;;8.57;6.90;;;;;;;16.35;100.00;100772.88;5057569;28;20315;-74
2022/09/05 00:41:49;;;;;;;10.43;8.90;;;;;;;16.34;100.00;100762.94;5055509;28;20263;-75
2022/09/05 00:44:20;;;;;;;11.38;7.95;;;;;;;16.32;100.00;100773.03;5048954;28;20209;-74
2022/09/05 00:46:55;;;;;;;8.48;7.63;;;;;;;16.43;100.00;100775.94;5068412;28;20741;-75
2022/09/05 00:49:30;;;;;;;7.97;6.70;;;;;;;16.52;100.00;100770.91;5054536;28;20220;-74
2022/09/05 00:52:01;;;;;;;7.85;6.80;;;;;;;16.53;100.00;100772.66;5060193;28;20213;-74
2022/09/05 00:54:50;;;;;;;8.40;7.40;;;;;;;16.50;100.00;100775.56;5059437;28;20197;-74
2022/09/05 00:57:41;;;;;;;8.32;7.30;;;;;;;16.50;100.00;100775.56;5052834;28;20201;-73
2022/09/05 01:00:18;;;;;;;8.73;7.82;;;;;;;16.47;100.00;100773.94;5048264;28;20288;-75
2022/09/05 01:03:18;;;;;;;8.40;7.13;;;;;;;16.44;100.00;100766.84;5046519;28;20204;-74
2022/09/05 01:06:01;;;;;;;9.90;6.93;;;;;;;16.38;100.00;100761.78;5061459;28;20273;-75
2022/09/05 01:08:50;;;;;;;7.20;6.47;;;;;;;16.35;100.00;100769.25;5071631;28;20239;-74
2022/09/05 01:11:31;;;;;;;8.95;7.32;;;;;;;16.23;100.00;100769.06;5064013;28;20246;-75
2022/09/05 01:14:11;;;;;;;8.75;7.85;;;;;;;16.21;100.00;100765.59;5072917;28;20255;-74
2022/09/05 01:17:00;;;;;;;9.52;7.15;;;;;;;16.22;100.00;100759.19;5094482;28;20193;-74
2022/09/05 01:19:39;;;;;;;7.60;6.80;;;;;;;16.25;100.00;100755.38;5066216;28;20276;-74
2022/09/05 01:22:28;;;;;;;8.57;7.70;;;;;;;16.22;100.00;100752.88;5080470;28;20259;-74
2022/09/05 01:25:11;;;;;;;7.85;7.05;;;;;;;16.19;100.00;100753.94;5075553;28;20200;-74
2022/09/05 01:27:51;;;;;;;9.27;6.95;;;;;;;16.23;100.00;100752.75;5062111;28;20220;-75
2022/09/05 01:30:22;;;;;;;7.80;6.93;;;;;;;16.31;100.00;100752.28;5069430;28;20196;-74
2022/09/05 01:32:59;;;;;;;9.15;6.22;;;;;;;16.25;100.00;100752.66;5068848;28;20209;-74
2022/09/05 01:35:44;;;;;;;7.90;7.10;;;;;;;16.19;100.00;100755.75;5056949;28;20189;-73
2022/09/05 01:38:18;;;;;;;8.95;6.55;;;;;;;16.20;100.00;100757.53;5055513;28;20228;-75
2022/09/05 01:40:53;;;;;;;8.75;7.65;;;;;;;16.13;100.00;100758.88;5067447;28;20228;-74
2022/09/05 01:43:33;;;;;;;8.70;7.80;;;;;;;16.16;100.00;100755.97;5078610;28;20279;-74
2022/09/05 01:46:09;;;;;;;8.98;8.07;;;;;;;16.12;100.00;100762.56;5067234;28;20229;-74
2022/09/05 01:48:48;;;;;;;8.57;7.72;;;;;;;16.02;100.00;100760.41;5069815;28;20311;-74
2022/09/05 01:51:26;;;;;;;9.85;8.02;;;;;;;16.09;100.00;100760.03;5055328;28;20277;-74
2022/09/05 01:53:58;;;;;;;8.10;7.00;;;;;;;16.12;100.00;100768.00;5085760;28;20255;-74
2022/09/05 01:56:41;;;;;;;8.23;7.43;;;;;;;16.16;100.00;100754.13;5074693;28;20223;-74
2022/09/05 01:59:26;;;;;;;8.63;7.30;;;;;;;16.15;100.00;100754.25;5076661;28;20258;-74
2022/09/05 02:02:22;;;;;;;8.65;7.75;;;;;;;16.11;100.00;100748.13;5071271;28;20294;-75
2022/09/05 02:05:11;;;;;;;8.10;7.05;;;;;;;16.15;100.00;100748.81;5062589;28;20272;-74
2022/09/05 02:07:54;;;;;;;8.50;7.00;;;;;;;16.09;100.00;100741.03;5073426;28;20229;-74
2022/09/05 02:10:41;;;;;;;8.50;7.40;;;;;;;16.01;100.00;100744.25;5072439;28;20268;-75
2022/09/05 02:13:22;;;;;;;8.27;7.47;;;;;;;16.04;100.00;100739.47;5076908;28;20204;-75
2022/09/05 02:15:58;;;;;;;8.25;7.45;;;;;;;15.98;100.00;100738.97;5073226;28;20287;-75
2022/09/05 02:18:30;;;;;;;7.65;6.80;;;;;;;15.97;100.00;100738.13;5079386;28;20276;-73
2022/09/05 02:21:00;;;;;;;7.65;6.90;;;;;;;16.02;100.00;100743.25;5081832;28;20202;-74
2022/09/05 02:23:38;;;;;;;8.43;7.38;;;;;;;16.01;100.00;100742.38;5072404;28;20216;-74
2022/09/05 02:26:09;;;;;;;7.30;6.55;;;;;;;16.03;100.00;100745.88;5081072;28;20249;-74
2022/09/05 02:28:43;;;;;;;8.35;7.55;;;;;;;16.11;100.00;100747.25;5080882;28;20288;-75
2022/09/05 02:31:20;;;;;;;10.68;8.15;;;;;;;16.16;100.00;100737.81;5075920;28;20260;-74
2022/09/05 02:33:51;;;;;;;9.98;8.10;;;;;;;16.12;100.00;100738.97;5081368;28;20267;-75
2022/09/05 02:36:29;;;;;;;9.27;7.18;;;;;;;16.08;100.00;100734.72;5080339;28;20212;-75
2022/09/05 02:39:01;;;;;;;7.53;6.75;;;;;;;16.10;100.00;100730.06;5093591;28;20235;-75
2022/09/05 02:41:33;;;;;;;8.60;7.38;;;;;;;16.17;100.00;100734.16;5085477;28;20276;-74
2022/09/05 02:44:09;;;;;;;8.10;7.32;;;;;;;16.11;100.00;100726.38;5075953;28;20307;-74
2022/09/05 02:46:45;;;;;;;7.78;6.70;;;;;;;16.12;100.00;100725.38;5067336;28;20762;-75
2022/09/05 02:49:14;;;;;;;8.70;6.80;;;;;;;16.10;100.00;100731.91;5051608;28;20226;-74
2022/09/05 02:51:49;;;;;;;6.97;5.80;;;;;;;15.96;100.00;100730.91;5063155;28;20213;-77
2022/09/05 02:54:20;;;;;;;8.18;7.03;;;;;;;15.92;100.00;100732.09;5062078;28;20742;-75
2022/09/05 02:56:58;;;;;;;10.25;8.60;;;;;;;15.76;100.00;100729.47;5052746;28;20213;-74
2022/09/05 02:59:43;;;;;;;8.98;7.10;;;;;;;15.74;100.00;100744.13;5081272;22;20231;-71
2022/09/05 03:02:19;;;;;;;8.45;7.10;;;;;;;15.70;100.00;100735.22;5053929;28;20341;-70
2022/09/05 03:04:51;;;;;;;8.18;7.40;;;;;;;15.67;100.00;100742.69;5057158;28;20196;-70
2022/09/05 03:07:41;;;;;;;13.60;7.15;;;;;;;15.73;100.00;100747.78;5065960;28;20206;-72
2022/09/05 03:10:22;;;;;;;7.82;7.10;;;;;;;15.69;100.00;100748.91;5061137;28;20235;-71
2022/09/05 03:13:27;;;;;;;7.75;6.88;;;;;;;15.68;100.00;100747.16;5048479;28;20215;-70
2022/09/05 03:16:16;;;;;;;7.85;6.78;;;;;;;15.64;100.00;100747.31;5053912;28;20194;-70
2022/09/05 03:19:22;;;;;;;8.88;6.85;;;;;;;15.63;100.00;100758.31;5057120;28;20312;-70
2022/09/05 03:22:18;;;;;;;8.30;7.47;;;;;;;15.53;100.00;100749.81;5062252;28;20213;-71
2022/09/05 03:25:23;;;;;;;8.40;7.60;;;;;;;15.43;100.00;100752.22;5050040;28;20214;-71
2022/09/05 03:28:35;;;;;;;9.25;8.23;;;;;;;15.41;100.00;100761.44;5071808;28;20217;-70
2022/09/05 03:31:20;;;;;;;8.82;7.95;;;;;;;15.48;100.00;100762.81;5062299;28;20205;-72
2022/09/05 03:34:09;;;;;;;8.43;7.63;;;;;;;15.61;100.00;100755.66;5070391;28;20979;-71
2022/09/05 03:37:13;;;;;;;8.98;7.72;;;;;;;15.73;100.00;100753.22;5065415;28;20195;-71
2022/09/05 03:40:20;;;;;;;7.10;6.50;;;;;;;15.78;100.00;100751.97;5043517;28;20660;-70
2022/09/05 03:43:01;;;;;;;9.48;7.05;;;;;;;15.70;100.00;100748.81;5055783;28;20214;-70
2022/09/05 03:46:01;;;;;;;8.00;7.20;;;;;;;15.79;100.00;100756.44;5060753;28;20204;-70
2022/09/05 03:48:46;;;;;;;7.30;6.60;;;;;;;15.82;100.00;100752.63;5063573;28;20294;-71
2022/09/05 03:51:29;;;;;;;8.05;7.28;;;;;;;15.86;100.00;100746.06;5074839;28;20209;-71
2022/09/05 03:54:21;;;;;;;9.00;6.82;;;;;;;15.80;100.00;100750.00;5060869;28;20214;-70
2022/09/05 03:57:11;;;;;;;8.40;7.20;;;;;;;15.81;100.00;100751.78;5058796;28;20199;-71
2022/09/05 04:00:04;;;;;;;7.93;6.95;;;;;;;15.87;100.00;100750.50;5052356;28;20230;-70
2022/09/05 04:02:33;;;;;;;8.05;7.25;;;;;;;15.90;100.00;100753.06;5057857;28;20271;-71
2022/09/05 04:05:05;;;;;;;9.23;7.45;;;;;;;15.98;100.00;100747.13;5037432;28;20205;-70
2022/09/05 04:07:38;;;;;;;12.10;8.95;;;;;;;16.04;100.00;100747.63;5058559;28;20201;-69
2022/09/05 04:10:09;;;;;;;9.90;8.02;;;;;;;16.09;100.00;100751.91;5067722;28;20267;-71
2022/09/05 04:12:46;;;;;;;7.00;6.30;;;;;;;16.11;100.00;100749.97;5066791;28;20228;-71
2022/09/05 04:15:25;;;;;;;7.18;6.47;;;;;;;16.10;100.00;100745.47;5061584;28;20202;-70
2022/09/05 04:17:57;;;;;;;7.97;7.18;;;;;;;16.08;100.00;100755.56;5062584;28;20204;-72
2022/09/05 04:20:36;;;;;;;7.97;7.22;;;;;;;16.05;100.00;100753.91;5069385;28;20288;-72
2022/09/05 04:23:15;;;;;;;7.30;6.60;;;;;;;15.97;100.00;100751.69;5059081;28;20203;-71
2022/09/05 04:25:54;;;;;;;7.68;6.97;;;;;;;15.98;100.00;100749.84;5054300;28;20560;-71
2022/09/05 04:28:38;;;;;;;8.75;7.85;;;;;;;16.03;100.00;100753.13;5054304;28;20195;-70
2022/09/05 04:31:16;;;;;;;8.30;7.57;;;;;;;16.02;100.00;100755.00;5047252;28;20217;-71
2022/09/05 04:33:56;;;;;;;9.15;6.78;;;;;;;16.02;100.00;100756.84;5047147;28;20578;-72
2022/09/05 04:36:27;;;;;;;8.60;6.75;;;;;;;16.05;100.00;100759.34;5070357;28;20200;-73
2022/09/05 04:39:09;;;;;;;8.90;6.40;;;;;;;16.09;100.00;100755.47;5069163;28;20265;-73
2022/09/05 04:41:42;;;;;;;9.88;7.15;;;;;;;16.05;100.00;100770.22;5054848;28;20199;-72
2022/09/05 04:44:13;;;;;;;9.20;8.27;;;;;;;16.07;100.00;100765.56;5050924;28;20661;-71
2022/09/05 04:46:47;;;;;;;9.07;7.68;;;;;;;16.16;100.00;100772.28;5060105;28;20634;-72
2022/09/05 04:49:18;;;;;;;8.63;6.90;;;;;;;16.24;100.00;100769.97;5059323;28;20220;-71
2022/09/05 04:52:10;;;;;;;11.63;9.20;;;;;;;16.27;100.00;100764.31;5054974;28;20201;-72
2022/09/05 04:54:45;;;;;;;8.82;7.50;;;;;;;16.38;100.00;100772.66;5054894;28;20823;-72
2022/09/05 04:57:20;;;;;;;7.90;7.10;;;;;;;16.35;100.00;100767.44;5058520;28;20243;-71
2022/09/05 04:59:52;;;;;;;8.30;6.68;;;;;;;16.34;100.00;100771.09;5054332;28;20257;-72
2022/09/05 05:02:26;;;;;;;8.60;7.28;;;;;;;16.42;100.00;100771.50;5054643;28;20193;-72
2022/09/05 05:05:01;;;;;;;7.55;6.70;;;;;;;16.50;100.00;100779.16;5054812;28;20187;-72
2022/09/05 05:07:38;;;;;;;17.95;8.00;;;;;;;16.59;100.00;100785.84;5053686;28;20669;-70
2022/09/05 05:10:10;;;;;;;9.00;6.88;;;;;;;16.70;100.00;100785.16;5054556;28;20228;-71
2022/09/05 05:13:01;;;;;;;9.38;6.55;;;;;;;16.80;100.00;100789.94;5054551;28;20203;-73
2022/09/05 05:15:31;;;;;;;11.10;6.95;;;;;;;16.86;100.00;100789.53;5066260;28;20209;-70
2022/09/05 05:18:06;;;;;;;7.78;5.97;;;;;;;16.97;100.00;100790.69;5062253;28;20206;-72
2022/09/05 05:20:38;;;;;;;7.90;6.80;;;;;;;17.11;100.00;100796.06;5053883;28;20194;-71
2022/09/05 05:23:09;;;;;;;7.22;6.38;;;;;;;17.24;100.00;100796.13;5055049;28;20301;-73
2022/09/05 05:25:45;;;;;;;8.60;5.90;;;;;;;17.32;100.00;100803.78;5066917;28;20283;-69
2022/09/05 05:28:14;;;;;;;8.13;5.80;;;;;;;17.32;100.00;100796.50;5050085;28;20211;-73
2022/09/05 05:30:42;;;;;;;10.65;6.15;;;;;;;17.28;100.00;100804.00;5065992;28;20230;-72
2022/09/05 05:33:22;;;;;;;10.20;6.53;;;;;;;17.30;100.00;100803.91;5064806;28;20204;-72
2022/09/05 05:35:50;;;;;;;8.50;6.07;;;;;;;17.32;100.00;100810.13;5038718;28;20193;-70
2022/09/05 05:38:28;;;;;;;9.75;6.35;;;;;;;17.34;100.00;100805.41;5056499;28;20213;-70
2022/09/05 05:41:04;;;;;;;8.30;6.28;;;;;;;17.46;100.00;100803.75;5054816;28;20193;-72
2022/09/05 05:43:36;;;;;;;11.35;6.82;;;;;;;17.50;100.00;100805.25;5059020;28;20680;-70
2022/09/05 05:46:03;;;;;;;9.50;6.68;;;;;;;17.54;100.00;100805.94;5074698;28;20653;-70
2022/09/05 05:48:36;;;;;;;8.75;6.10;;;;;;;17.71;100.00;100806.53;5056171;28;20216;-69
2022/09/05 05:51:20;;;;;;;8.05;5.78;;;;;;;17.81;100.00;100805.88;5056219;28;20198;-70
2022/09/05 05:53:56;;;;;;;9.43;6.50;;;;;;;17.94;100.00;100808.66;5056960;28;20572;-69
2022/09/05 05:56:40;;;;;;;5.93;5.22;;;;;;;18.08;100.00;100812.16;5057072;28;20215;-71
2022/09/05 05:59:27;;;;;;;6.53;5.22;;;;;;;18.27;100.00;100816.31;5056240;28;20236;-70
2022/09/05 06:02:19;;;;;;;7.43;5.38;;;;;;;18.45;100.00;100816.84;5057532;28;20393;-69
2022/09/05 06:05:19;;;;;;;6.95;5.60;;;;;;;18.62;100.00;100821.97;5057673;28;20192;-70
2022/09/05 06:07:58;;;;;;;6.25;5.50;;;;;;;18.76;100.00;100820.94;5057089;28;20217;-70
2022/09/05 06:10:49;;;;;;;7.88;5.45;;;;;;;18.88;100.00;100819.22;5059085;28;20213;-70
2022/09/05 06:13:58;;;;;;;8.77;7.30;;;;;;;19.03;100.00;100828.13;5058143;28;20189;-71
2022/09/05 06:16:50;;;;;;;6.60;5.57;;;;;;;19.12;100.00;100827.44;4978699;28;20670;-70
2022/09/05 06:20:01;;;;;;;7.40;6.00;;;;;;;19.30;100.00;100817.88;4976285;28;20224;-70
2022/09/05 06:23:12;;;;;;;8.85;6.13;;;;;;;19.56;100.00;100818.63;4918934;29;20558;-70
2022/09/05 06:26:09;;;;;;;8.57;5.47;;;;;;;19.84;100.00;100818.41;4919306;29;20263;-72
2022/09/05 06:28:53;;;;;;;5.60;5.10;;;;;;;20.01;100.00;100823.41;4916357;29;20233;-71
2022/09/05 06:31:47;;;;;;;7.83;5.47;;;;;;;20.06;98.56;100813.00;4919560;29;20193;-71
2022/09/05 06:34:27;;;;;;;9.70;5.43;;;;;;;20.31;97.28;100825.59;4916960;29;20482;-70
2022/09/05 06:37:00;;;;;;;5.30;4.80;;;;;;;20.43;95.77;100821.00;4918020;29;20513;-70
2022/09/05 06:39:47;;;;;;;6.40;5.10;;;;;;;20.56;93.99;100824.53;4917030;29;20466;-68
2022/09/05 06:42:23;;;;;;;5.83;5.30;;;;;;;20.76;93.13;100822.91;4902305;29;20438;-69
2022/09/05 06:45:16;;;;;;;6.40;4.90;;;;;;;20.95;90.76;100825.00;4898729;29;20442;-69
2022/09/05 06:47:46;;;;;;;5.67;5.03;;;;;;;21.09;88.77;100823.00;4898619;29;20469;-71
2022/09/05 06:50:17;;;;;;;5.63;5.13;;;;;;;21.21;87.82;100831.06;4899013;29;20518;-69
2022/09/05 06:53:28;;;;;;;6.30;4.77;;;;;;;21.36;86.80;100823.41;4940397;28;20448;-70
2022/09/05 06:56:21;;;;;;;6.23;5.17;;;;;;;21.67;84.72;100820.88;5071241;28;20466;-69
2022/09/05 06:59:22;;;;;;;5.67;4.53;;;;;;;21.96;81.89;100825.72;5056388;28;20881;-70
2022/09/05 07:01:53;;;;;;;6.47;4.77;;;;;;;22.07;80.94;100823.78;5056888;28;20443;-70
2022/09/05 07:04:32;;;;;;;6.50;4.80;;;;;;;22.41;79.75;100826.34;5056497;28;20509;-70
2022/09/05 07:07:10;;;;;;;5.90;4.87;;;;;;;22.72;76.49;100825.47;5056565;28;20789;-70
2022/09/05 07:09:52;;;;;;;5.50;4.70;;;;;;;22.88;75.79;100826.69;5055842;28;20825;-71
2022/09/05 07:12:26;;;;;;;7.27;4.57;;;;;;;23.14;73.04;100826.22;5065534;28;20510;-70
2022/09/05 07:14:59;;;;;;;7.13;5.10;;;;;;;23.29;72.87;100826.66;5062120;28;20463;-69
2022/09/05 07:17:37;;;;;;;5.73;4.33;;;;;;;23.80;69.98;100831.09;5061590;28;20450;-69
2022/09/05 07:20:16;;;;;;;7.30;3.90;;;;;;;24.31;67.32;100823.53;5058588;28;20467;-70
2022/09/05 07:23:03;;;;;;;6.67;3.67;;;;;;;24.73;64.56;100826.72;5056214;28;20438;-72
2022/09/05 07:25:32;;;;;;;7.07;4.27;;;;;;;25.21;62.67;100832.19;5056237;28;20419;-70
2022/09/05 07:28:05;;;;;;;6.97;3.70;;;;;;;25.53;60.97;100838.06;5054930;28;20531;-69
2022/09/05 07:30:32;;;;;;;8.50;4.50;;;;;;;26.08;58.04;100842.56;5054490;28;20439;-70
2022/09/05 07:33:02;;;;;;;9.93;4.30;;;;;;;26.54;56.45;100837.72;5054567;28;20435;-69
2022/09/05 07:35:31;;;;;;;4.87;4.00;;;;;;;26.15;56.96;100840.03;5054294;28;20487;-69
2022/09/05 07:38:05;;;;;;;5.27;3.97;;;;;;;26.87;55.41;100842.63;5058798;28;20442;-69
2022/09/05 07:40:35;;;;;;;5.60;3.70;;;;;;;27.76;52.35;100855.00;5055246;28;20420;-70
2022/09/05 07:43:07;;;;;;;5.90;3.57;;;;;;;28.28;50.06;100847.25;5055440;28;20450;-71
2022/09/05 07:45:38;;;;;;;5.90;3.70;;;;;;;28.45;48.64;100847.28;5056161;28;20422;-69
2022/09/05 07:48:10;;;;;;;6.63;3.40;;;;;;;29.03;47.77;100840.53;5055455;28;20902;-69
2022/09/05 07:50:47;;;;;;;3.10;2.80;;;;;;;29.67;45.74;100843.16;5055472;28;20491;-70
2022/09/05 07:53:15;;;;;;;3.93;3.30;;;;;;;30.45;44.26;100838.41;5054882;28;20423;-70
2022/09/05 07:55:42;;;;;;;7.10;3.50;;;;;;;31.11;42.77;100838.53;5054998;28;20488;-69
2022/09/05 07:58:13;;;;;;;3.67;3.30;;;;;;;31.23;41.85;100841.69;5054942;28;20435;-72
2022/09/05 08:00:42;;;;;;;5.83;2.80;;;;;;;31.62;41.72;100842.41;5055715;28;20424;-69
2022/09/05 08:03:11;;;;;;;6.60;2.90;;;;;;;31.68;40.83;100853.59;5055594;28;20462;-70
2022/09/05 08:05:42;;;;;;;3.80;2.70;;;;;;;31.81;40.54;100850.09;5054802;28;20786;-69
2022/09/05 08:08:12;;;;;;;3.40;3.10;;;;;;;31.65;40.92;100847.56;5054577;28;20440;-70
2022/09/05 08:10:44;;;;;;;3.83;3.23;;;;;;;32.75;39.28;100840.66;5057376;28;20436;-70
2022/09/05 08:13:15;;;;;;;3.70;2.77;;;;;;;33.42;37.99;100847.44;5055915;28;20428;-71
2022/09/05 08:15:46;;;;;;;4.50;2.80;;;;;;;34.67;35.63;100845.94;5055970;28;20463;-71
2022/09/05 08:18:17;;;;;;;4.80;2.57;;;;;;;34.96;35.00;100846.53;5054502;28;20434;-70
2022/09/05 08:20:49;;;;;;;3.40;2.67;;;;;;;34.32;35.73;100847.22;5054675;28;20439;-69
2022/09/05 08:23:32;;;;;;;6.07;2.37;;;;;;;33.80;36.46;100838.56;5055152;28;20466;-70
2022/09/05 08:26:06;;;;;;;2.90;2.33;;;;;;;32.24;38.88;100830.59;5054175;28;20424;-69
2022/09/05 08:28:42;;;;;;;6.53;2.80;;;;;;;32.41;38.88;100832.03;5055341;28;20465;-70
2022/09/05 08:31:15;;;;;;;2.70;2.50;;;;;;;32.99;37.79;100825.31;5054428;28;20785;-70
2022/09/05 08:33:43;;;;;;;6.03;2.77;;;;;;;34.06;36.42;100834.94;5053401;28;20438;-70
2022/09/05 08:36:23;;;;;;;2.90;2.37;;;;;;;35.11;34.80;100834.19;5053151;28;20991;-70
2022/09/05 08:38:50;;;;;;;3.60;2.60;;;;;;;36.06;33.47;100839.97;5053895;28;21143;-71
2022/09/05 08:41:25;;;;;;;3.77;2.60;;;;;;;36.61;32.78;100839.31;5054389;28;20530;-70
2022/09/05 08:44:04;;;;;;;3.30;2.30;;;;;;;37.41;31.67;100832.81;5053928;28;20416;-69
2022/09/05 08:46:36;;;;;;;4.17;2.70;;;;;;;37.55;31.02;100829.59;5054170;28;20424;-70
2022/09/05 08:49:32;;;;;;;2.93;2.40;;;;;;;37.55;30.75;100826.78;5053385;28;20817;-70
2022/09/05 08:52:04;;;;;;;4.13;2.10;;;;;;;37.68;30.74;100827.69;5053561;28;20438;-70
2022/09/05 08:54:37;;;;;;;2.77;2.10;;;;;;;37.81;30.49;100830.31;5053940;28;20464;-70
2022/09/05 08:57:16;;;;;;;2.50;2.10;;;;;;;38.16;30.23;100826.75;5054525;28;20975;-70
2022/09/05 08:59:50;;;;;;;3.83;2.30;;;;;;;36.33;32.11;100821.84;5073736;22;20604;-75
2022/09/05 09:02:47;;;;;;;5.10;2.67;;;;;;;34.03;35.26;100805.50;5075966;28;20471;-74
2022/09/05 09:05:28;;;;;;;6.07;2.90;;;;;;;33.29;36.67;100800.81;5074234;28;20522;-73
2022/09/05 09:07:59;;;;;;;4.20;2.63;;;;;;;34.74;34.92;100803.13;5076061;28;20847;-74
2022/09/05 09:10:31;;;;;;;2.77;2.27;;;;;;;36.38;32.71;100807.13;5074336;28;20470;-74
2022/09/05 09:13:23;;;;;;;4.57;2.10;;;;;;;37.42;31.01;100800.78;5073795;28;20470;-73
2022/09/05 09:16:03;;;;;;;3.30;2.13;;;;;;;35.86;32.85;100812.06;5074022;28;20487;-73
2022/09/05 09:18:41;;;;;;;2.60;2.30;;;;;;;34.00;35.49;100805.06;5073781;28;20430;-74
2022/09/05 09:21:25;;;;;;;3.50;2.43;;;;;;;33.33;36.62;100804.03;5074525;28;20423;-74
2022/09/05 09:24:02;;;;;;;3.00;2.70;;;;;;;33.93;36.08;100802.25;5074698;28;20838;-73
2022/09/05 09:26:34;;;;;;;2.80;2.60;;;;;;;35.20;34.22;100802.97;5078887;28;20809;-75
2022/09/05 09:29:05;;;;;;;3.07;2.47;;;;;;;35.72;33.50;100808.53;5080245;28;20472;-73
2022/09/05 09:31:59;;;;;;;7.50;6.73;;;;;;;36.92;31.74;100799.88;5079031;28;20461;-72
2022/09/05 09:34:36;;;;;;;6.07;3.60;;;;;;;36.04;32.32;100803.75;5077745;28;20788;-74
2022/09/05 09:37:21;;;;;;;2.27;2.07;;;;;;;35.06;33.78;100798.47;5077716;28;20445;-75
2022/09/05 09:40:15;;;;;;;4.03;2.10;;;;;;;35.19;33.68;100797.59;5078108;28;20466;-74
2022/09/05 09:42:50;;;;;;;2.23;1.90;;;;;;;35.16;33.39;100795.22;5055211;28;20987;-73
2022/09/05 09:45:30;;;;;;;3.17;2.37;;;;;;;33.82;34.98;100797.31;5057906;28;20419;-72
2022/09/05 09:48:27;;;;;;;3.13;2.53;;;;;;;32.77;36.93;100796.69;5061038;28;20443;-73
2022/09/05 09:51:21;;;;;;;4.80;2.50;;;;;;;31.75;38.85;100798.84;5058064;28;20465;-72
2022/09/05 09:54:03;;;;;;;5.77;3.50;;;;;;;31.30;40.36;100795.34;5059766;28;20420;-74
2022/09/05 09:56:53;;;;;;;4.77;2.73;;;;;;;34.01;36.31;100792.81;5059659;28;20474;-73
2022/09/05 09:59:58;;;;;;;4.03;2.40;;;;;;;37.00;31.61;100793.13;5057766;28;20479;-74
2022/09/05 10:03:01;;;;;;;5.40;4.30;;;;;;;39.40;28.67;100789.09;5060974;28;20443;-72
2022/09/05 10:05:54;;;;;;;3.57;2.87;;;;;;;41.35;26.55;100783.72;4998662;28;20493;-74
2022/09/05 10:08:37;;;;;;;3.67;3.33;;;;;;;42.42;25.25;100789.56;4993882;28;20560;-72
2022/09/05 10:11:37;;;;;;;3.10;2.83;;;;;;;43.25;24.38;100783.25;4996057;28;20442;-74
2022/09/05 10:14:45;;;;;;;2.67;2.17;;;;;;;40.79;25.64;100784.69;4996423;28;20430;-73
2022/09/05 10:17:43;;;;;;;1.87;1.67;;;;;;;41.49;24.94;100772.84;4996246;28;20440;-73
2022/09/05 10:20:39;;;;;;;2.53;2.33;;;;;;;41.01;25.38;100769.72;4995248;28;20458;-75
2022/09/05 10:23:56;;;;;;;3.43;1.97;;;;;;;41.21;25.78;100763.50;4996767;28;21047;-73
2022/09/05 10:27:05;;;;;;;2.00;1.80;;;;;;;42.66;24.01;100767.34;4956019;29;20467;-73
2022/09/05 10:29:45;;;;;;;1.80;1.63;;;;;;;43.47;23.27;100764.03;4898719;29;20945;-74
2022/09/05 10:32:20;;;;;;;1.40;1.20;;;;;;;44.17;22.54;100768.34;4900606;29;20459;-73
2022/09/05 10:34:56;;;;;;;2.63;1.50;;;;;;;41.39;24.84;100757.50;4898751;29;21019;-73
2022/09/05 10:37:32;;;;;;;2.67;1.50;;;;;;;37.65;28.77;100746.66;4905565;29;20451;-73
2022/09/05 10:40:08;;;;;;;1.80;1.70;;;;;;;37.60;28.87;100753.00;4904543;29;21320;-76
2022/09/05 10:42:42;;;;;;;3.53;1.93;;;;;;;37.78;28.51;100743.66;4953569;28;20431;-75
2022/09/05 10:45:14;;;;;;;1.53;1.43;;;;;;;39.12;27.39;100736.38;4976889;28;20443;-74
2022/09/05 10:47:47;;;;;;;2.43;1.60;;;;;;;39.22;26.87;100749.81;4974520;28;20443;-71
2022/09/05 10:50:26;;;;;;;2.03;1.80;;;;;;;37.20;29.00;100730.25;4976825;28;20659;-74
2022/09/05 10:53:24;;;;;;;1.97;1.70;;;;;;;38.55;28.11;100725.88;4975002;28;20451;-75
2022/09/05 10:56:03;;;;;;;1.97;1.70;;;;;;;37.73;28.25;100715.41;4975259;28;20475;-73
2022/09/05 10:58:58;;;;;;;2.00;1.50;;;;;;;38.88;26.73;100722.34;5012734;28;20448;-72
2022/09/05 11:01:33;;;;;;;3.40;1.70;;;;;;;38.39;27.56;100717.03;4971943;28;20929;-74
2022/09/05 11:04:12;;;;;;;1.97;1.63;;;;;;;38.92;27.04;100708.63;4974026;28;20442;-74
2022/09/05 11:06:57;;;;;;;1.87;1.70;;;;;;;40.06;25.83;100716.13;4974555;28;20532;-75
2022/09/05 11:09:38;;;;;;;2.07;1.40;;;;;;;38.67;27.06;100695.75;4975741;28;20470;-72
2022/09/05 11:12:20;;;;;;;1.43;1.33;;;;;;;41.31;24.82;100698.63;4972941;28;20476;-73
2022/09/05 11:14:51;;;;;;;4.00;3.70;;;;;;;42.18;23.42;100705.06;4976219;28;20486;-74
2022/09/05 11:17:29;;;;;;;5.20;1.70;;;;;;;41.89;23.59;100698.88;4973892;28;20891;-74
2022/09/05 11:20:06;;;;;;;4.63;1.23;;;;;;;42.43;23.15;100693.06;4973785;28;20852;-73
2022/09/05 11:22:37;;;;;;;1.43;1.30;;;;;;;40.10;25.09;100694.78;4974123;28;20443;-73
2022/09/05 11:25:08;;;;;;;2.47;1.67;;;;;;;40.29;25.02;100683.22;4976123;28;20480;-74
2022/09/05 11:27:40;;;;;;;1.57;1.30;;;;;;;41.14;24.21;100678.97;4975452;28;20468;-74
2022/09/05 11:30:11;;;;;;;2.37;1.67;;;;;;;40.96;24.29;100682.97;4974860;28;21020;-73
2022/09/05 11:32:58;;;;;;;1.90;1.20;;;;;;;38.96;26.14;100674.16;4975773;28;20448;-74
2022/09/05 11:35:26;;;;;;;2.37;1.57;;;;;;;38.00;27.33;100672.78;4975774;28;20572;-74
2022/09/05 11:38:28;;;;;;;2.40;1.70;;;;;;;39.40;26.23;100676.41;5001695;28;20529;-73
2022/09/05 11:41:28;;;;;;;2.20;2.00;;;;;;;40.84;24.87;100674.66;5014056;28;20457;-75
2022/09/05 11:44:23;;;;;;;5.60;2.00;;;;;;;42.59;23.02;100679.00;4955240;29;20531;-73
2022/09/05 11:47:09;;;;;;;4.27;1.63;;;;;;;42.64;22.42;100677.00;4955277;28;20424;-73
2022/09/05 11:50:03;;;;;;;1.50;1.33;;;;;;;41.34;23.41;100666.16;4955220;29;21018;-74
2022/09/05 11:53:04;;;;;;;2.23;1.50;;;;;;;42.92;22.39;100666.38;4954467;29;20455;-74
2022/09/05 11:55:49;;;;;;;2.03;1.20;;;;;;;38.82;25.82;100655.78;4959338;29;20484;-73
2022/09/05 11:58:40;;;;;;;1.73;1.43;;;;;;;37.22;27.27;100655.06;4972749;28;20446;-73
2022/09/05 12:01:15;;;;;;;5.03;1.63;;;;;;;37.46;27.00;100651.22;4970731;29;20452;-74
2022/09/05 12:03:57;;;;;;;1.90;1.43;;;;;;;37.39;26.06;100647.66;4965215;28;20454;-74
2022/09/05 12:06:56;;;;;;;1.60;1.40;;;;;;;37.58;25.96;100653.22;4959642;29;20452;-74
2022/09/05 12:09:34;;;;;;;2.07;1.50;;;;;;;39.09;23.84;100647.63;4956066;29;20531;-74
2022/09/05 12:12:25;;;;;;;1.40;1.30;;;;;;;38.44;25.23;100633.88;4954825;29;20447;-73
2022/09/05 12:15:03;;;;;;;2.23;1.80;;;;;;;37.23;26.67;100637.97;4955738;29;20593;-75
2022/09/05 12:17:39;;;;;;;3.00;1.50;;;;;;;36.64;27.02;100637.72;4969029;28;20478;-74
2022/09/05 12:20:14;;;;;;;1.47;1.37;;;;;;;36.49;26.72;100640.06;5007492;28;20485;-75
2022/09/05 12:22:52;;;;;;;1.93;1.83;;;;;;;37.75;25.24;100635.41;5076570;28;20919;-75
2022/09/05 12:25:25;;;;;;;1.80;1.50;;;;;;;40.31;23.32;100627.38;5074495;28;20522;-74